sensor_id;sensor_type;location;lat;lon;timestamp;P1;durP1;ratioP1;P2;durP2;ratioP2
19358;SDS011;9815;52.334;20.890;2022-09-01T00:00:39;2.87;;;1.20;;
19358;SDS011;9815;52.334;20.890;2022-09-01T00:03:15;2.57;;;1.27;;
19358;SDS011;9815;52.334;20.890;2022-09-01T00:05:44;2.10;;;1.10;;
19358;SDS011;9815;52.334;20.890;2022-09-01T00:08:16;2.93;;;1.10;;
19358;SDS011;9815;52.334;20.890;2022-09-01T00:10:45;2.00;;;1.10;;
19358;SDS011;9815;52.334;20.890;2022-09-01T00:13:14;2.27;;;1.10;;
19358;SDS011;9815;52.334;20.890;2022-09-01T00:15:43;1.60;;;0.90;;
19358;SDS011;9815;52.334;20.890;2022-09-01T00:18:12;3.07;;;1.23;;
19358;SDS011;9815;52.334;20.890;2022-09-01T00:20:41;0.97;;;0.87;;
19358;SDS011;9815;52.334;20.890;2022-09-01T00:23:09;2.67;;;1.07;;
19358;SDS011;9815;52.334;20.890;2022-09-01T00:25:37;2.47;;;1.10;;
19358;SDS011;9815;52.334;20.890;2022-09-01T00:28:06;1.23;;;0.90;;
19358;SDS011;9815;52.334;20.890;2022-09-01T00:30:36;4.13;;;1.20;;
19358;SDS011;9815;52.334;20.890;2022-09-01T00:33:04;2.57;;;1.20;;
19358;SDS011;9815;52.334;20.890;2022-09-01T00:35:33;2.27;;;1.20;;
19358;SDS011;9815;52.334;20.890;2022-09-01T00:38:02;3.27;;;1.30;;
19358;SDS011;9815;52.334;20.890;2022-09-01T00:40:31;2.67;;;1.40;;
19358;SDS011;9815;52.334;20.890;2022-09-01T00:42:59;4.17;;;1.50;;
19358;SDS011;9815;52.334;20.890;2022-09-01T00:45:28;5.30;;;1.60;;
19358;SDS011;9815;52.334;20.890;2022-09-01T00:47:57;2.80;;;1.50;;
19358;SDS011;9815;52.334;20.890;2022-09-01T00:50:26;4.00;;;1.20;;
19358;SDS011;9815;52.334;20.890;2022-09-01T00:52:54;3.67;;;1.60;;
19358;SDS011;9815;52.334;20.890;2022-09-01T00:55:24;4.47;;;1.70;;
19358;SDS011;9815;52.334;20.890;2022-09-01T00:57:58;4.60;;;1.60;;
19358;SDS011;9815;52.334;20.890;2022-09-01T01:00:29;4.40;;;1.50;;
19358;SDS011;9815;52.334;20.890;2022-09-01T01:03:01;3.37;;;1.70;;
19358;SDS011;9815;52.334;20.890;2022-09-01T01:05:30;2.63;;;1.60;;
19358;SDS011;9815;52.334;20.890;2022-09-01T01:08:00;3.00;;;1.60;;
19358;SDS011;9815;52.334;20.890;2022-09-01T01:10:34;4.13;;;1.87;;
19358;SDS011;9815;52.334;20.890;2022-09-01T01:13:08;4.13;;;1.80;;
19358;SDS011;9815;52.334;20.890;2022-09-01T01:15:39;2.53;;;1.50;;
19358;SDS011;9815;52.334;20.890;2022-09-01T01:18:10;2.53;;;1.30;;
19358;SDS011;9815;52.334;20.890;2022-09-01T01:20:41;3.37;;;1.60;;
19358;SDS011;9815;52.334;20.890;2022-09-01T01:23:30;2.93;;;1.40;;
19358;SDS011;9815;52.334;20.890;2022-09-01T01:26:08;3.60;;;1.30;;
19358;SDS011;9815;52.334;20.890;2022-09-01T01:28:40;1.93;;;1.40;;
19358;SDS011;9815;52.334;20.890;2022-09-01T01:31:10;2.20;;;1.20;;
19358;SDS011;9815;52.334;20.890;2022-09-01T01:33:40;3.47;;;1.23;;
19358;SDS011;9815;52.334;20.890;2022-09-01T01:36:13;2.27;;;1.20;;
19358;SDS011;9815;52.334;20.890;2022-09-01T01:38:46;2.37;;;1.43;;
19358;SDS011;9815;52.334;20.890;2022-09-01T01:41:18;1.90;;;1.40;;
19358;SDS011;9815;52.334;20.890;2022-09-01T01:43:47;2.40;;;1.40;;
19358;SDS011;9815;52.334;20.890;2022-09-01T01:46:18;2.67;;;1.27;;
19358;SDS011;9815;52.334;20.890;2022-09-01T01:48:48;3.57;;;1.40;;
19358;SDS011;9815;52.334;20.890;2022-09-01T01:51:18;2.20;;;1.30;;
19358;SDS011;9815;52.334;20.890;2022-09-01T01:53:50;3.07;;;1.33;;
19358;SDS011;9815;52.334;20.890;2022-09-01T01:56:21;4.10;;;1.30;;
19358;SDS011;9815;52.334;20.890;2022-09-01T01:58:51;5.83;;;1.40;;
19358;SDS011;9815;52.334;20.890;2022-09-01T02:01:21;2.07;;;1.40;;
19358;SDS011;9815;52.334;20.890;2022-09-01T02:03:51;3.67;;;1.30;;
19358;SDS011;9815;52.334;20.890;2022-09-01T02:06:21;1.90;;;1.30;;
19358;SDS011;9815;52.334;20.890;2022-09-01T02:08:54;1.60;;;0.97;;
19358;SDS011;9815;52.334;20.890;2022-09-01T02:11:26;3.03;;;1.40;;
19358;SDS011;9815;52.334;20.890;2022-09-01T02:13:55;1.60;;;1.30;;
19358;SDS011;9815;52.334;20.890;2022-09-01T02:16:23;5.93;;;1.30;;
19358;SDS011;9815;52.334;20.890;2022-09-01T02:18:54;1.90;;;1.30;;
19358;SDS011;9815;52.334;20.890;2022-09-01T02:21:23;3.00;;;1.33;;
19358;SDS011;9815;52.334;20.890;2022-09-01T02:23:53;1.77;;;1.30;;
19358;SDS011;9815;52.334;20.890;2022-09-01T02:26:27;3.73;;;1.40;;
19358;SDS011;9815;52.334;20.890;2022-09-01T02:28:58;2.80;;;1.40;;
19358;SDS011;9815;52.334;20.890;2022-09-01T02:31:30;2.03;;;1.47;;
19358;SDS011;9815;52.334;20.890;2022-09-01T02:34:01;3.13;;;1.67;;
19358;SDS011;9815;52.334;20.890;2022-09-01T02:36:31;2.47;;;1.47;;
19358;SDS011;9815;52.334;20.890;2022-09-01T02:39:03;2.67;;;1.40;;
19358;SDS011;9815;52.334;20.890;2022-09-01T02:41:34;2.47;;;1.50;;
19358;SDS011;9815;52.334;20.890;2022-09-01T02:44:03;3.37;;;1.40;;
19358;SDS011;9815;52.334;20.890;2022-09-01T02:46:37;2.60;;;1.40;;
19358;SDS011;9815;52.334;20.890;2022-09-01T02:49:08;2.17;;;1.50;;
19358;SDS011;9815;52.334;20.890;2022-09-01T02:51:41;2.63;;;1.60;;
19358;SDS011;9815;52.334;20.890;2022-09-01T02:54:11;5.83;;;1.57;;
19358;SDS011;9815;52.334;20.890;2022-09-01T02:56:45;3.90;;;1.40;;
19358;SDS011;9815;52.334;20.890;2022-09-01T02:59:15;2.00;;;1.60;;
19358;SDS011;9815;52.334;20.890;2022-09-01T03:01:47;2.83;;;2.20;;
19358;SDS011;9815;52.334;20.890;2022-09-01T03:04:17;1.97;;;1.57;;
19358;SDS011;9815;52.334;20.890;2022-09-01T03:06:45;4.03;;;1.70;;
19358;SDS011;9815;52.334;20.890;2022-09-01T03:09:16;3.73;;;1.43;;
19358;SDS011;9815;52.334;20.890;2022-09-01T03:11:47;3.10;;;1.70;;
19358;SDS011;9815;52.334;20.890;2022-09-01T03:14:16;3.73;;;1.80;;
19358;SDS011;9815;52.334;20.890;2022-09-01T03:16:45;2.80;;;1.70;;
19358;SDS011;9815;52.334;20.890;2022-09-01T03:19:14;3.77;;;1.80;;
19358;SDS011;9815;52.334;20.890;2022-09-01T03:21:45;2.07;;;1.53;;
19358;SDS011;9815;52.334;20.890;2022-09-01T03:24:19;3.43;;;1.80;;
19358;SDS011;9815;52.334;20.890;2022-09-01T03:26:51;2.67;;;1.50;;
19358;SDS011;9815;52.334;20.890;2022-09-01T03:29:19;2.07;;;1.40;;
19358;SDS011;9815;52.334;20.890;2022-09-01T03:31:48;2.07;;;1.60;;
19358;SDS011;9815;52.334;20.890;2022-09-01T03:34:16;5.07;;;1.90;;
19358;SDS011;9815;52.334;20.890;2022-09-01T03:36:52;5.63;;;1.80;;
19358;SDS011;9815;52.334;20.890;2022-09-01T03:39:25;2.10;;;1.63;;
19358;SDS011;9815;52.334;20.890;2022-09-01T03:41:56;3.93;;;1.63;;
19358;SDS011;9815;52.334;20.890;2022-09-01T03:44:25;4.67;;;1.73;;
19358;SDS011;9815;52.334;20.890;2022-09-01T03:46:53;2.53;;;1.60;;
19358;SDS011;9815;52.334;20.890;2022-09-01T03:49:23;2.83;;;1.60;;
19358;SDS011;9815;52.334;20.890;2022-09-01T03:51:54;3.50;;;1.80;;
19358;SDS011;9815;52.334;20.890;2022-09-01T03:54:25;3.73;;;2.03;;
19358;SDS011;9815;52.334;20.890;2022-09-01T03:56:57;3.40;;;2.00;;
19358;SDS011;9815;52.334;20.890;2022-09-01T03:59:27;2.30;;;1.70;;
19358;SDS011;9815;52.334;20.890;2022-09-01T04:01:56;4.60;;;1.80;;
19358;SDS011;9815;52.334;20.890;2022-09-01T04:04:25;3.83;;;2.57;;
19358;SDS011;9815;52.334;20.890;2022-09-01T04:06:57;3.17;;;1.83;;
19358;SDS011;9815;52.334;20.890;2022-09-01T04:09:27;3.77;;;2.03;;
19358;SDS011;9815;52.334;20.890;2022-09-01T04:11:57;5.93;;;2.07;;
19358;SDS011;9815;52.334;20.890;2022-09-01T04:14:25;4.30;;;2.13;;
19358;SDS011;9815;52.334;20.890;2022-09-01T04:16:56;6.90;;;2.30;;
19358;SDS011;9815;52.334;20.890;2022-09-01T04:19:41;5.53;;;2.10;;
19358;SDS011;9815;52.334;20.890;2022-09-01T04:22:10;2.87;;;2.40;;
19358;SDS011;9815;52.334;20.890;2022-09-01T04:24:41;5.67;;;2.20;;
19358;SDS011;9815;52.334;20.890;2022-09-01T04:27:13;4.33;;;2.20;;
19358;SDS011;9815;52.334;20.890;2022-09-01T04:29:43;4.23;;;2.40;;
19358;SDS011;9815;52.334;20.890;2022-09-01T04:32:13;4.30;;;2.30;;
19358;SDS011;9815;52.334;20.890;2022-09-01T04:34:45;2.60;;;2.03;;
19358;SDS011;9815;52.334;20.890;2022-09-01T04:37:15;2.80;;;2.00;;
19358;SDS011;9815;52.334;20.890;2022-09-01T04:39:53;5.43;;;2.43;;
19358;SDS011;9815;52.334;20.890;2022-09-01T04:42:26;4.33;;;2.27;;
19358;SDS011;9815;52.334;20.890;2022-09-01T04:44:59;5.53;;;2.50;;
19358;SDS011;9815;52.334;20.890;2022-09-01T04:47:41;3.50;;;2.53;;
19358;SDS011;9815;52.334;20.890;2022-09-01T04:50:15;6.47;;;2.43;;
19358;SDS011;9815;52.334;20.890;2022-09-01T04:53:03;6.07;;;2.50;;
19358;SDS011;9815;52.334;20.890;2022-09-01T04:55:38;5.37;;;2.70;;
19358;SDS011;9815;52.334;20.890;2022-09-01T04:58:11;4.20;;;2.80;;
19358;SDS011;9815;52.334;20.890;2022-09-01T05:00:43;3.30;;;2.37;;
19358;SDS011;9815;52.334;20.890;2022-09-01T05:03:17;6.23;;;2.80;;
19358;SDS011;9815;52.334;20.890;2022-09-01T05:06:03;4.47;;;2.73;;
19358;SDS011;9815;52.334;20.890;2022-09-01T05:08:32;5.03;;;2.57;;
19358;SDS011;9815;52.334;20.890;2022-09-01T05:11:05;5.53;;;2.40;;
19358;SDS011;9815;52.334;20.890;2022-09-01T05:13:45;3.53;;;2.30;;
19358;SDS011;9815;52.334;20.890;2022-09-01T05:16:16;4.87;;;2.50;;
19358;SDS011;9815;52.334;20.890;2022-09-01T05:18:53;5.17;;;2.40;;
19358;SDS011;9815;52.334;20.890;2022-09-01T05:21:25;4.20;;;2.33;;
19358;SDS011;9815;52.334;20.890;2022-09-01T05:23:57;4.67;;;2.57;;
19358;SDS011;9815;52.334;20.890;2022-09-01T05:26:28;7.23;;;2.53;;
19358;SDS011;9815;52.334;20.890;2022-09-01T05:29:02;5.23;;;2.27;;
19358;SDS011;9815;52.334;20.890;2022-09-01T05:31:36;5.10;;;2.40;;
19358;SDS011;9815;52.334;20.890;2022-09-01T05:34:07;5.20;;;2.07;;
19358;SDS011;9815;52.334;20.890;2022-09-01T05:36:40;3.23;;;2.10;;
19358;SDS011;9815;52.334;20.890;2022-09-01T05:39:11;2.30;;;1.70;;
19358;SDS011;9815;52.334;20.890;2022-09-01T05:41:40;3.30;;;1.90;;
19358;SDS011;9815;52.334;20.890;2022-09-01T05:44:10;3.60;;;1.83;;
19358;SDS011;9815;52.334;20.890;2022-09-01T05:46:40;3.27;;;1.60;;
19358;SDS011;9815;52.334;20.890;2022-09-01T05:49:10;4.60;;;1.60;;
19358;SDS011;9815;52.334;20.890;2022-09-01T05:51:42;3.10;;;1.60;;
19358;SDS011;9815;52.334;20.890;2022-09-01T05:54:19;5.80;;;1.70;;
19358;SDS011;9815;52.334;20.890;2022-09-01T05:56:51;3.70;;;2.17;;
19358;SDS011;9815;52.334;20.890;2022-09-01T05:59:25;1.70;;;1.40;;
19358;SDS011;9815;52.334;20.890;2022-09-01T06:02:00;2.80;;;1.87;;
19358;SDS011;9815;52.334;20.890;2022-09-01T06:04:29;1.70;;;1.50;;
19358;SDS011;9815;52.334;20.890;2022-09-01T06:07:02;4.20;;;1.47;;
19358;SDS011;9815;52.334;20.890;2022-09-01T06:09:37;3.93;;;1.30;;
19358;SDS011;9815;52.334;20.890;2022-09-01T06:12:07;2.20;;;1.50;;
19358;SDS011;9815;52.334;20.890;2022-09-01T06:14:45;3.27;;;1.23;;
19358;SDS011;9815;52.334;20.890;2022-09-01T06:17:15;3.00;;;1.20;;
19358;SDS011;9815;52.334;20.890;2022-09-01T06:19:48;3.23;;;1.33;;
19358;SDS011;9815;52.334;20.890;2022-09-01T06:22:18;4.90;;;1.37;;
19358;SDS011;9815;52.334;20.890;2022-09-01T06:24:48;2.40;;;1.13;;
19358;SDS011;9815;52.334;20.890;2022-09-01T06:27:28;2.97;;;1.10;;
19358;SDS011;9815;52.334;20.890;2022-09-01T06:29:57;2.90;;;0.93;;
19358;SDS011;9815;52.334;20.890;2022-09-01T06:32:31;1.13;;;1.03;;
19358;SDS011;9815;52.334;20.890;2022-09-01T06:35:04;1.63;;;1.03;;
19358;SDS011;9815;52.334;20.890;2022-09-01T06:37:35;3.00;;;1.10;;
19358;SDS011;9815;52.334;20.890;2022-09-01T06:40:06;1.10;;;0.90;;
19358;SDS011;9815;52.334;20.890;2022-09-01T06:42:43;1.93;;;0.90;;
19358;SDS011;9815;52.334;20.890;2022-09-01T06:45:14;1.50;;;0.90;;
19358;SDS011;9815;52.334;20.890;2022-09-01T06:47:44;1.97;;;0.83;;
19358;SDS011;9815;52.334;20.890;2022-09-01T06:50:14;2.27;;;0.90;;
19358;SDS011;9815;52.334;20.890;2022-09-01T06:53:05;3.87;;;0.87;;
19358;SDS011;9815;52.334;20.890;2022-09-01T06:55:58;1.33;;;0.80;;
19358;SDS011;9815;52.334;20.890;2022-09-01T06:58:29;0.90;;;0.80;;
19358;SDS011;9815;52.334;20.890;2022-09-01T07:01:03;0.67;;;0.67;;
19358;SDS011;9815;52.334;20.890;2022-09-01T07:03:33;4.60;;;0.90;;
19358;SDS011;9815;52.334;20.890;2022-09-01T07:06:14;1.90;;;0.90;;
19358;SDS011;9815;52.334;20.890;2022-09-01T07:09:15;1.20;;;0.80;;
19358;SDS011;9815;52.334;20.890;2022-09-01T07:12:16;2.17;;;0.90;;
19358;SDS011;9815;52.334;20.890;2022-09-01T07:14:54;1.70;;;0.90;;
19358;SDS011;9815;52.334;20.890;2022-09-01T07:17:46;1.40;;;0.80;;
19358;SDS011;9815;52.334;20.890;2022-09-01T07:20:19;1.60;;;0.90;;
19358;SDS011;9815;52.334;20.890;2022-09-01T07:22:51;1.63;;;0.97;;
19358;SDS011;9815;52.334;20.890;2022-09-01T07:25:33;2.73;;;0.90;;
19358;SDS011;9815;52.334;20.890;2022-09-01T07:28:31;2.23;;;0.90;;
19358;SDS011;9815;52.334;20.890;2022-09-01T07:31:03;2.27;;;0.93;;
19358;SDS011;9815;52.334;20.890;2022-09-01T07:33:57;2.53;;;1.20;;
19358;SDS011;9815;52.334;20.890;2022-09-01T07:36:50;1.37;;;0.70;;
19358;SDS011;9815;52.334;20.890;2022-09-01T07:39:42;1.67;;;0.80;;
19358;SDS011;9815;52.334;20.890;2022-09-01T07:42:29;2.27;;;0.80;;
19358;SDS011;9815;52.334;20.890;2022-09-01T07:45:36;7.50;;;0.90;;
19358;SDS011;9815;52.334;20.890;2022-09-01T07:48:16;1.70;;;0.80;;
19358;SDS011;9815;52.334;20.890;2022-09-01T07:51:10;1.10;;;0.67;;
19358;SDS011;9815;52.334;20.890;2022-09-01T07:53:59;0.87;;;0.60;;
19358;SDS011;9815;52.334;20.890;2022-09-01T07:56:29;0.93;;;0.60;;
19358;SDS011;9815;52.334;20.890;2022-09-01T07:59:03;3.47;;;0.70;;
19358;SDS011;9815;52.334;20.890;2022-09-01T08:01:33;2.70;;;0.80;;
19358;SDS011;9815;52.334;20.890;2022-09-01T08:04:03;1.13;;;0.60;;
19358;SDS011;9815;52.334;20.890;2022-09-01T08:06:33;3.30;;;0.70;;
19358;SDS011;9815;52.334;20.890;2022-09-01T08:09:06;1.30;;;0.70;;
19358;SDS011;9815;52.334;20.890;2022-09-01T08:11:43;1.70;;;0.60;;
19358;SDS011;9815;52.334;20.890;2022-09-01T08:14:31;2.97;;;1.13;;
19358;SDS011;9815;52.334;20.890;2022-09-01T08:17:00;1.10;;;0.60;;
19358;SDS011;9815;52.334;20.890;2022-09-01T08:19:49;1.03;;;0.50;;
19358;SDS011;9815;52.334;20.890;2022-09-01T08:22:34;0.50;;;0.50;;
19358;SDS011;9815;52.334;20.890;2022-09-01T08:25:13;0.77;;;0.63;;
19358;SDS011;9815;52.334;20.890;2022-09-01T08:27:42;1.93;;;0.63;;
19358;SDS011;9815;52.334;20.890;2022-09-01T08:30:11;0.63;;;0.63;;
19358;SDS011;9815;52.334;20.890;2022-09-01T08:32:41;0.50;;;0.50;;
19358;SDS011;9815;52.334;20.890;2022-09-01T08:35:10;1.20;;;0.50;;
19358;SDS011;9815;52.334;20.890;2022-09-01T08:37:42;1.30;;;0.70;;
19358;SDS011;9815;52.334;20.890;2022-09-01T08:40:12;0.60;;;0.60;;
19358;SDS011;9815;52.334;20.890;2022-09-01T08:42:48;3.43;;;0.80;;
19358;SDS011;9815;52.334;20.890;2022-09-01T08:45:26;1.10;;;0.50;;
19358;SDS011;9815;52.334;20.890;2022-09-01T08:48:05;1.07;;;0.50;;
19358;SDS011;9815;52.334;20.890;2022-09-01T08:51:02;1.27;;;0.57;;
19358;SDS011;9815;52.334;20.890;2022-09-01T08:54:03;1.43;;;0.60;;
19358;SDS011;9815;52.334;20.890;2022-09-01T08:56:37;3.10;;;0.57;;
19358;SDS011;9815;52.334;20.890;2022-09-01T08:59:08;1.27;;;0.50;;
19358;SDS011;9815;52.334;20.890;2022-09-01T09:05:21;0.40;;;0.40;;
19358;SDS011;9815;52.334;20.890;2022-09-01T09:11:10;1.67;;;0.60;;
19358;SDS011;9815;52.334;20.890;2022-09-01T09:13:53;0.83;;;0.50;;
19358;SDS011;9815;52.334;20.890;2022-09-01T09:16:27;1.00;;;0.43;;
19358;SDS011;9815;52.334;20.890;2022-09-01T09:19:00;1.10;;;0.57;;
19358;SDS011;9815;52.334;20.890;2022-09-01T09:21:32;0.77;;;0.47;;
19358;SDS011;9815;52.334;20.890;2022-09-01T09:24:05;0.87;;;0.40;;
19358;SDS011;9815;52.334;20.890;2022-09-01T09:26:38;0.87;;;0.50;;
19358;SDS011;9815;52.334;20.890;2022-09-01T09:29:08;0.40;;;0.40;;
19358;SDS011;9815;52.334;20.890;2022-09-01T09:31:38;1.90;;;0.40;;
19358;SDS011;9815;52.334;20.890;2022-09-01T09:34:16;1.47;;;0.40;;
19358;SDS011;9815;52.334;20.890;2022-09-01T09:36:59;1.70;;;0.40;;
19358;SDS011;9815;52.334;20.890;2022-09-01T09:39:42;2.63;;;0.40;;
19358;SDS011;9815;52.334;20.890;2022-09-01T09:42:12;0.40;;;0.40;;
19358;SDS011;9815;52.334;20.890;2022-09-01T09:44:42;0.40;;;0.40;;
19358;SDS011;9815;52.334;20.890;2022-09-01T09:47:31;0.60;;;0.50;;
19358;SDS011;9815;52.334;20.890;2022-09-01T09:50:12;1.27;;;0.40;;
19358;SDS011;9815;52.334;20.890;2022-09-01T09:52:47;1.97;;;0.50;;
19358;SDS011;9815;52.334;20.890;2022-09-01T09:55:19;0.50;;;0.50;;
19358;SDS011;9815;52.334;20.890;2022-09-01T09:57:52;0.50;;;0.43;;
19358;SDS011;9815;52.334;20.890;2022-09-01T10:00:23;0.67;;;0.40;;
19358;SDS011;9815;52.334;20.890;2022-09-01T10:02:54;0.50;;;0.40;;
19358;SDS011;9815;52.334;20.890;2022-09-01T10:05:27;0.40;;;0.40;;
19358;SDS011;9815;52.334;20.890;2022-09-01T10:08:02;1.13;;;0.50;;
19358;SDS011;9815;52.334;20.890;2022-09-01T10:10:35;0.57;;;0.43;;
19358;SDS011;9815;52.334;20.890;2022-09-01T10:13:09;1.57;;;0.43;;
19358;SDS011;9815;52.334;20.890;2022-09-01T10:15:40;0.87;;;0.50;;
19358;SDS011;9815;52.334;20.890;2022-09-01T10:18:17;1.20;;;0.73;;
19358;SDS011;9815;52.334;20.890;2022-09-01T10:20:55;6.10;;;0.60;;
19358;SDS011;9815;52.334;20.890;2022-09-01T10:23:27;1.10;;;0.40;;
19358;SDS011;9815;52.334;20.890;2022-09-01T10:26:00;1.23;;;0.50;;
19358;SDS011;9815;52.334;20.890;2022-09-01T10:28:39;1.13;;;0.40;;
19358;SDS011;9815;52.334;20.890;2022-09-01T10:31:16;0.60;;;0.40;;
19358;SDS011;9815;52.334;20.890;2022-09-01T10:33:45;0.60;;;0.40;;
19358;SDS011;9815;52.334;20.890;2022-09-01T10:36:15;0.83;;;0.33;;
19358;SDS011;9815;52.334;20.890;2022-09-01T10:38:45;1.30;;;0.50;;
19358;SDS011;9815;52.334;20.890;2022-09-01T10:44:27;2.73;;;0.50;;
19358;SDS011;9815;52.334;20.890;2022-09-01T10:47:00;0.70;;;0.40;;
19358;SDS011;9815;52.334;20.890;2022-09-01T10:55:42;0.70;;;0.50;;
19358;SDS011;9815;52.334;20.890;2022-09-01T10:58:28;0.90;;;0.50;;
19358;SDS011;9815;52.334;20.890;2022-09-01T11:07:45;0.70;;;0.40;;
19358;SDS011;9815;52.334;20.890;2022-09-01T11:10:37;0.50;;;0.50;;
19358;SDS011;9815;52.334;20.890;2022-09-01T11:19:31;1.37;;;0.50;;
19358;SDS011;9815;52.334;20.890;2022-09-01T11:28:09;1.67;;;0.40;;
19358;SDS011;9815;52.334;20.890;2022-09-01T11:31:08;0.53;;;0.47;;
19358;SDS011;9815;52.334;20.890;2022-09-01T11:33:58;0.93;;;0.50;;
19358;SDS011;9815;52.334;20.890;2022-09-01T11:36:34;1.07;;;0.50;;
19358;SDS011;9815;52.334;20.890;2022-09-01T11:39:05;0.83;;;0.53;;
19358;SDS011;9815;52.334;20.890;2022-09-01T11:41:45;1.30;;;0.60;;
19358;SDS011;9815;52.334;20.890;2022-09-01T11:44:24;0.40;;;0.40;;
19358;SDS011;9815;52.334;20.890;2022-09-01T11:46:57;3.63;;;0.40;;
19358;SDS011;9815;52.334;20.890;2022-09-01T11:49:30;1.50;;;0.40;;
19358;SDS011;9815;52.334;20.890;2022-09-01T11:52:02;0.80;;;0.40;;
19358;SDS011;9815;52.334;20.890;2022-09-01T11:54:36;1.80;;;0.40;;
19358;SDS011;9815;52.334;20.890;2022-09-01T11:57:17;2.60;;;0.63;;
19358;SDS011;9815;52.334;20.890;2022-09-01T11:59:50;0.60;;;0.50;;
19358;SDS011;9815;52.334;20.890;2022-09-01T12:02:20;1.20;;;0.40;;
19358;SDS011;9815;52.334;20.890;2022-09-01T12:04:51;1.10;;;0.57;;
19358;SDS011;9815;52.334;20.890;2022-09-01T12:07:32;3.70;;;0.40;;
19358;SDS011;9815;52.334;20.890;2022-09-01T12:10:13;0.50;;;0.43;;
19358;SDS011;9815;52.334;20.890;2022-09-01T12:12:43;2.77;;;0.50;;
19358;SDS011;9815;52.334;20.890;2022-09-01T12:15:16;0.50;;;0.40;;
19358;SDS011;9815;52.334;20.890;2022-09-01T12:17:47;0.80;;;0.50;;
19358;SDS011;9815;52.334;20.890;2022-09-01T12:20:24;1.40;;;0.50;;
19358;SDS011;9815;52.334;20.890;2022-09-01T12:23:01;0.53;;;0.40;;
19358;SDS011;9815;52.334;20.890;2022-09-01T12:25:30;1.67;;;0.50;;
19358;SDS011;9815;52.334;20.890;2022-09-01T12:28:01;0.50;;;0.50;;
19358;SDS011;9815;52.334;20.890;2022-09-01T12:30:31;4.90;;;0.57;;
19358;SDS011;9815;52.334;20.890;2022-09-01T12:33:04;0.40;;;0.40;;
19358;SDS011;9815;52.334;20.890;2022-09-01T12:35:51;1.33;;;0.70;;
19358;SDS011;9815;52.334;20.890;2022-09-01T12:38:39;1.23;;;0.40;;
19358;SDS011;9815;52.334;20.890;2022-09-01T12:41:21;1.10;;;0.43;;
19358;SDS011;9815;52.334;20.890;2022-09-01T12:43:54;0.57;;;0.30;;
19358;SDS011;9815;52.334;20.890;2022-09-01T12:46:41;1.55;;;0.40;;
19358;SDS011;9815;52.334;20.890;2022-09-01T12:49:15;1.97;;;0.40;;
19358;SDS011;9815;52.334;20.890;2022-09-01T12:51:45;0.75;;;0.43;;
19358;SDS011;9815;52.334;20.890;2022-09-01T12:54:15;5.17;;;0.93;;
19358;SDS011;9815;52.334;20.890;2022-09-01T12:56:51;1.00;;;0.50;;
19358;SDS011;9815;52.334;20.890;2022-09-01T12:59:23;0.40;;;0.40;;
19358;SDS011;9815;52.334;20.890;2022-09-01T13:02:24;2.83;;;0.50;;
19358;SDS011;9815;52.334;20.890;2022-09-01T13:04:54;2.83;;;0.60;;
19358;SDS011;9815;52.334;20.890;2022-09-01T13:07:42;1.23;;;0.60;;
19358;SDS011;9815;52.334;20.890;2022-09-01T13:10:12;2.20;;;0.50;;
19358;SDS011;9815;52.334;20.890;2022-09-01T13:12:41;5.03;;;0.70;;
19358;SDS011;9815;52.334;20.890;2022-09-01T13:15:11;3.17;;;0.90;;
19358;SDS011;9815;52.334;20.890;2022-09-01T13:17:39;0.47;;;0.40;;
19358;SDS011;9815;52.334;20.890;2022-09-01T13:20:09;5.40;;;0.70;;
19358;SDS011;9815;52.334;20.890;2022-09-01T13:22:38;2.37;;;0.50;;
19358;SDS011;9815;52.334;20.890;2022-09-01T13:25:08;3.40;;;0.50;;
19358;SDS011;9815;52.334;20.890;2022-09-01T13:27:38;0.47;;;0.40;;
19358;SDS011;9815;52.334;20.890;2022-09-01T13:30:10;2.00;;;0.50;;
19358;SDS011;9815;52.334;20.890;2022-09-01T13:32:39;1.27;;;0.50;;
19358;SDS011;9815;52.334;20.890;2022-09-01T13:35:27;0.90;;;0.50;;
19358;SDS011;9815;52.334;20.890;2022-09-01T13:37:56;0.60;;;0.40;;
19358;SDS011;9815;52.334;20.890;2022-09-01T13:40:24;0.67;;;0.50;;
19358;SDS011;9815;52.334;20.890;2022-09-01T13:42:54;0.70;;;0.50;;
19358;SDS011;9815;52.334;20.890;2022-09-01T13:45:23;2.20;;;0.60;;
19358;SDS011;9815;52.334;20.890;2022-09-01T13:47:51;1.63;;;0.60;;
19358;SDS011;9815;52.334;20.890;2022-09-01T13:50:40;0.90;;;0.60;;
19358;SDS011;9815;52.334;20.890;2022-09-01T13:53:28;1.13;;;0.70;;
19358;SDS011;9815;52.334;20.890;2022-09-01T13:55:57;0.70;;;0.60;;
19358;SDS011;9815;52.334;20.890;2022-09-01T13:58:27;1.53;;;0.80;;
19358;SDS011;9815;52.334;20.890;2022-09-01T14:00:55;1.13;;;0.83;;
19358;SDS011;9815;52.334;20.890;2022-09-01T14:03:25;0.63;;;0.53;;
19358;SDS011;9815;52.334;20.890;2022-09-01T14:05:55;1.73;;;0.60;;
19358;SDS011;9815;52.334;20.890;2022-09-01T14:08:23;0.77;;;0.60;;
19358;SDS011;9815;52.334;20.890;2022-09-01T14:10:52;2.37;;;0.60;;
19358;SDS011;9815;52.334;20.890;2022-09-01T14:13:21;1.43;;;0.73;;
19358;SDS011;9815;52.334;20.890;2022-09-01T14:15:52;1.30;;;0.60;;
19358;SDS011;9815;52.334;20.890;2022-09-01T14:18:21;0.83;;;0.70;;
19358;SDS011;9815;52.334;20.890;2022-09-01T14:21:02;2.10;;;0.70;;
19358;SDS011;9815;52.334;20.890;2022-09-01T14:23:30;1.53;;;0.50;;
19358;SDS011;9815;52.334;20.890;2022-09-01T14:25:58;0.87;;;0.40;;
19358;SDS011;9815;52.334;20.890;2022-09-01T14:28:27;0.60;;;0.50;;
19358;SDS011;9815;52.334;20.890;2022-09-01T14:30:56;1.57;;;0.43;;
19358;SDS011;9815;52.334;20.890;2022-09-01T14:33:24;0.67;;;0.50;;
19358;SDS011;9815;52.334;20.890;2022-09-01T14:35:52;0.40;;;0.40;;
19358;SDS011;9815;52.334;20.890;2022-09-01T14:38:20;0.50;;;0.50;;
19358;SDS011;9815;52.334;20.890;2022-09-01T14:40:49;0.80;;;0.60;;
19358;SDS011;9815;52.334;20.890;2022-09-01T14:43:17;1.17;;;0.50;;
19358;SDS011;9815;52.334;20.890;2022-09-01T14:45:46;2.07;;;0.50;;
19358;SDS011;9815;52.334;20.890;2022-09-01T14:48:17;0.97;;;0.43;;
19358;SDS011;9815;52.334;20.890;2022-09-01T14:50:47;1.53;;;0.30;;
19358;SDS011;9815;52.334;20.890;2022-09-01T14:53:16;0.63;;;0.40;;
19358;SDS011;9815;52.334;20.890;2022-09-01T14:55:45;2.50;;;0.47;;
19358;SDS011;9815;52.334;20.890;2022-09-01T14:58:17;2.00;;;0.50;;
19358;SDS011;9815;52.334;20.890;2022-09-01T15:00:46;2.00;;;0.50;;
19358;SDS011;9815;52.334;20.890;2022-09-01T15:03:16;0.47;;;0.40;;
19358;SDS011;9815;52.334;20.890;2022-09-01T15:05:48;0.40;;;0.40;;
19358;SDS011;9815;52.334;20.890;2022-09-01T15:08:16;0.50;;;0.50;;
19358;SDS011;9815;52.334;20.890;2022-09-01T15:10:45;0.50;;;0.47;;
19358;SDS011;9815;52.334;20.890;2022-09-01T15:13:13;1.40;;;0.50;;
19358;SDS011;9815;52.334;20.890;2022-09-01T15:15:42;0.40;;;0.40;;
19358;SDS011;9815;52.334;20.890;2022-09-01T15:18:10;0.57;;;0.40;;
19358;SDS011;9815;52.334;20.890;2022-09-01T15:20:40;1.53;;;0.43;;
19358;SDS011;9815;52.334;20.890;2022-09-01T15:23:12;1.53;;;0.50;;
19358;SDS011;9815;52.334;20.890;2022-09-01T15:25:42;0.93;;;0.47;;
19358;SDS011;9815;52.334;20.890;2022-09-01T15:28:10;1.40;;;0.60;;
19358;SDS011;9815;52.334;20.890;2022-09-01T15:30:39;0.80;;;0.50;;
19358;SDS011;9815;52.334;20.890;2022-09-01T15:33:10;0.53;;;0.50;;
19358;SDS011;9815;52.334;20.890;2022-09-01T15:35:43;2.20;;;0.40;;
19358;SDS011;9815;52.334;20.890;2022-09-01T15:38:12;0.87;;;0.60;;
19358;SDS011;9815;52.334;20.890;2022-09-01T15:40:43;1.03;;;0.43;;
19358;SDS011;9815;52.334;20.890;2022-09-01T15:43:24;0.40;;;0.40;;
19358;SDS011;9815;52.334;20.890;2022-09-01T15:45:53;0.50;;;0.50;;
19358;SDS011;9815;52.334;20.890;2022-09-01T15:48:23;2.13;;;0.53;;
19358;SDS011;9815;52.334;20.890;2022-09-01T15:50:54;0.30;;;0.30;;
19358;SDS011;9815;52.334;20.890;2022-09-01T15:53:33;0.57;;;0.40;;
19358;SDS011;9815;52.334;20.890;2022-09-01T15:56:02;1.83;;;0.50;;
19358;SDS011;9815;52.334;20.890;2022-09-01T15:58:30;1.23;;;0.50;;
19358;SDS011;9815;52.334;20.890;2022-09-01T16:01:18;0.83;;;0.50;;